aviador You're here:

CYKL Decoded Metar

SCHEFFERVILLE in QC, CANADA
Report Time2017-08-23 03:00:00
UTC Time2017-08-23 04:10:59
Flight Rules Old
Wind110° at 08 kt
W.Decomp.*RWY 18: 5.4 kt HW 5.9 kt LCW
W.Rank110° ranks 26
Current wind is above 110° avg. (5.6)
Visibility9999 m
Phenomena:N/A
Clouds:Overcast 008 Hf
Expected CloudBase > 400 ft AGL from Temp-Dew spread
Ceiling800 ft
Temp11°C (ISA -1)
Dew Point10°C (94% RH)
AAT8.2°C
QNH1007 hPa
Density Alt2,014 ft
Elevation1,709 ft
Report Wrong Elevation
Raw Report
CYKL 230300Z AUTO 11008KT 9SM OVC008 11/10 A2973 RMK SLP080
DENSITY ALT 1800FT=

Extra information for CYKL:More info

Metar Taf Metar & Taf Last 4 Metars F.Rules Stats Wind Profile Meteogram Temp Stats Airport Information Weather charts Add Link Nearby VenuesMetar ALERT Operation Metar Decoded Social comments